createdAt,value
2022-08-30T00:00:02.713Z,4.15
2022-08-30T00:02:30.519Z,3.92
2022-08-30T00:05:01.447Z,3.88
2022-08-30T00:07:29.107Z,4.47
2022-08-30T00:09:57.088Z,4.90
2022-08-30T00:12:26.030Z,4.85
2022-08-30T00:14:53.891Z,4.90
2022-08-30T00:17:21.423Z,4.57
2022-08-30T00:19:48.995Z,4.55
2022-08-30T00:22:16.573Z,4.47
2022-08-30T00:24:44.212Z,4.90
2022-08-30T00:27:11.881Z,4.65
2022-08-30T00:29:41.142Z,4.68
2022-08-30T00:32:08.732Z,4.47
2022-08-30T00:34:36.262Z,4.17
2022-08-30T00:37:03.863Z,3.90
2022-08-30T00:39:31.531Z,4.20
2022-08-30T00:45:52.354Z,4.05
2022-08-30T00:48:21.646Z,4.15
2022-08-30T00:50:51.090Z,3.80
2022-08-30T00:53:21.323Z,4.40
2022-08-30T00:55:50.446Z,3.90
2022-08-30T00:58:23.316Z,3.30
2022-08-30T01:00:51.784Z,3.65
2022-08-30T01:03:19.347Z,3.73
2022-08-30T01:05:49.623Z,3.70
2022-08-30T01:08:17.220Z,3.53
2022-08-30T01:10:45.315Z,4.03
2022-08-30T01:13:13.895Z,3.70
2022-08-30T01:15:41.691Z,3.60
2022-08-30T01:18:11.279Z,3.20
2022-08-30T01:20:45.829Z,3.90
2022-08-30T01:23:15.814Z,3.63
2022-08-30T01:25:46.150Z,3.93
2022-08-30T01:28:15.684Z,3.80
2022-08-30T01:30:43.648Z,4.10
2022-08-30T01:33:11.751Z,4.00
2022-08-30T01:35:47.204Z,3.73
2022-08-30T01:38:16.972Z,4.63
2022-08-30T01:40:44.855Z,4.00
2022-08-30T01:43:13.339Z,4.70
2022-08-30T01:45:41.007Z,4.40
2022-08-30T01:48:08.731Z,4.43
2022-08-30T01:50:36.616Z,4.60
2022-08-30T01:53:07.731Z,4.00
2022-08-30T01:55:41.177Z,3.90
2022-08-30T01:58:09.203Z,3.63
2022-08-30T02:00:36.693Z,4.13
2022-08-30T02:03:04.269Z,3.57
2022-08-30T02:05:31.730Z,3.97
2022-08-30T02:07:59.440Z,3.83
2022-08-30T02:10:27.548Z,4.10
2022-08-30T02:12:56.426Z,4.17
2022-08-30T02:15:23.982Z,3.83
2022-08-30T02:17:51.562Z,4.30
2022-08-30T02:20:19.602Z,3.87
2022-08-30T02:22:49.442Z,3.97
2022-08-30T02:25:20.881Z,3.77
2022-08-30T02:27:48.846Z,4.40
2022-08-30T02:30:19.048Z,4.17
2022-08-30T02:32:46.622Z,4.28
2022-08-30T02:35:14.179Z,4.50
2022-08-30T02:37:42.035Z,4.43
2022-08-30T02:40:10.875Z,4.67
2022-08-30T02:42:38.560Z,4.27
2022-08-30T02:45:06.539Z,4.70
2022-08-30T02:47:35.721Z,5.33
2022-08-30T02:50:03.614Z,4.73
2022-08-30T02:52:31.544Z,4.30
2022-08-30T02:54:59.758Z,4.60
2022-08-30T02:57:27.376Z,5.30
2022-08-30T02:59:54.922Z,5.07
2022-08-30T03:02:23.054Z,5.13
2022-08-30T03:04:51.967Z,4.67
2022-08-30T03:07:19.636Z,5.50
2022-08-30T03:09:47.120Z,4.63
2022-08-30T03:12:14.656Z,4.40
2022-08-30T03:14:42.189Z,5.17
2022-08-30T03:17:12.834Z,4.90
2022-08-30T03:19:44.087Z,4.73
2022-08-30T03:22:13.052Z,4.77
2022-08-30T03:24:40.674Z,4.43
2022-08-30T03:27:08.642Z,4.83
2022-08-30T03:29:36.291Z,4.13
2022-08-30T03:32:04.450Z,4.20
2022-08-30T03:34:32.548Z,4.77
2022-08-30T03:37:01.328Z,5.10
2022-08-30T03:39:30.226Z,4.50
2022-08-30T03:41:57.805Z,4.67
2022-08-30T03:44:26.854Z,4.83
2022-08-30T03:46:55.205Z,5.07
2022-08-30T03:49:22.691Z,5.77
2022-08-30T03:51:50.249Z,4.80
2022-08-30T03:54:18.013Z,4.87
2022-08-30T03:56:47.159Z,4.90
2022-08-30T03:59:14.817Z,4.67
2022-08-30T04:01:42.939Z,4.90
2022-08-30T04:04:10.606Z,4.93
2022-08-30T04:06:38.169Z,4.30
2022-08-30T04:09:06.725Z,5.10
2022-08-30T04:11:34.353Z,4.83
2022-08-30T04:14:03.271Z,4.90
2022-08-30T04:16:30.834Z,4.90
2022-08-30T04:18:58.428Z,4.40
2022-08-30T04:21:25.990Z,4.57
2022-08-30T04:23:53.545Z,4.97
2022-08-30T04:26:21.091Z,5.07
2022-08-30T04:28:48.752Z,4.73
2022-08-30T04:31:18.911Z,4.80
2022-08-30T04:33:46.577Z,4.57
2022-08-30T04:36:14.753Z,4.77
2022-08-30T04:38:42.828Z,4.33
2022-08-30T04:41:11.265Z,4.73
2022-08-30T04:43:39.522Z,4.37
2022-08-30T04:46:07.853Z,4.83
2022-08-30T04:48:37.230Z,4.70
2022-08-30T04:51:05.947Z,5.00
2022-08-30T04:53:33.784Z,4.27
2022-08-30T04:56:01.859Z,4.50
2022-08-30T04:58:29.610Z,4.27
2022-08-30T05:00:57.585Z,4.57
2022-08-30T05:03:25.241Z,4.43
2022-08-30T05:05:54.167Z,4.53
2022-08-30T05:08:24.810Z,5.60
2022-08-30T05:10:52.922Z,4.10
2022-08-30T05:13:21.361Z,4.63
2022-08-30T05:16:03.093Z,4.53
2022-08-30T05:18:30.693Z,5.70
2022-08-30T05:21:06.888Z,4.30
2022-08-30T05:23:34.460Z,4.93
2022-08-30T05:26:05.178Z,4.27
2022-08-30T05:28:32.725Z,4.20
2022-08-30T05:31:00.342Z,4.60
2022-08-30T05:33:27.936Z,3.77
2022-08-30T05:35:55.504Z,4.73
2022-08-30T05:38:24.430Z,3.43
2022-08-30T05:40:54.698Z,3.90
2022-08-30T05:43:22.205Z,3.50
2022-08-30T05:45:59.430Z,4.20
2022-08-30T05:48:29.839Z,3.27
2022-08-30T05:51:07.464Z,3.53
2022-08-30T05:53:36.374Z,3.30
2022-08-30T05:56:05.257Z,3.33
2022-08-30T05:58:32.841Z,3.70
2022-08-30T06:01:00.691Z,3.40
2022-08-30T06:03:28.877Z,3.70
2022-08-30T06:05:56.409Z,3.80
2022-08-30T06:08:23.884Z,3.40
2022-08-30T06:10:52.960Z,3.00
2022-08-30T06:13:20.473Z,3.67
2022-08-30T06:15:48.021Z,3.23
2022-08-30T06:18:15.698Z,4.07
2022-08-30T06:20:43.825Z,3.73
2022-08-30T06:23:11.673Z,3.40
2022-08-30T06:25:41.933Z,4.23
2022-08-30T06:28:11.749Z,3.57
2022-08-30T06:30:40.882Z,4.27
2022-08-30T06:33:08.671Z,4.40
2022-08-30T06:35:42.319Z,5.63
2022-08-30T06:38:24.627Z,5.35
2022-08-30T06:40:52.182Z,5.38
2022-08-30T06:43:21.114Z,4.80
2022-08-30T06:45:48.680Z,5.78
2022-08-30T06:48:16.619Z,5.53
2022-08-30T06:50:45.275Z,5.00
2022-08-30T06:53:12.872Z,5.32
2022-08-30T06:55:43.677Z,3.83
2022-08-30T06:58:11.311Z,3.95
2022-08-30T07:00:41.832Z,4.30
2022-08-30T07:03:09.827Z,4.35
2022-08-30T07:05:37.409Z,4.13
2022-08-30T07:08:06.215Z,4.38
2022-08-30T07:10:33.924Z,4.68
2022-08-30T07:13:01.387Z,3.60
2022-08-30T07:15:29.708Z,3.80
2022-08-30T07:18:20.523Z,3.40
2022-08-30T07:20:48.129Z,3.40
2022-08-30T07:23:15.751Z,3.53
2022-08-30T07:25:43.389Z,3.40
2022-08-30T07:28:11.741Z,3.30
2022-08-30T07:30:39.779Z,3.30
2022-08-30T07:33:08.885Z,3.20
2022-08-30T07:35:37.272Z,3.00
2022-08-30T07:38:05.049Z,3.10
2022-08-30T07:40:32.657Z,3.22
2022-08-30T07:43:02.339Z,3.13
2022-08-30T07:45:30.060Z,3.35
2022-08-30T07:47:58.041Z,4.00
2022-08-30T07:50:27.076Z,3.40
2022-08-30T07:52:54.657Z,3.35
2022-08-30T07:55:22.351Z,3.17
2022-08-30T07:57:50.119Z,3.40
2022-08-30T08:00:18.077Z,3.10
2022-08-30T08:02:45.865Z,3.00
2022-08-30T08:05:17.646Z,2.92
2022-08-30T08:07:47.840Z,3.15
2022-08-30T08:10:15.995Z,2.97
2022-08-30T08:12:43.586Z,3.10
2022-08-30T08:15:11.724Z,3.10
2022-08-30T08:17:39.405Z,2.85
2022-08-30T08:20:07.735Z,2.60
2022-08-30T08:22:39.384Z,3.63
2022-08-30T08:25:09.328Z,3.15
2022-08-30T08:27:36.805Z,3.88
2022-08-30T08:30:04.566Z,3.78
2022-08-30T08:32:32.128Z,3.47
2022-08-30T08:34:59.648Z,3.95
2022-08-30T08:37:27.995Z,3.92
2022-08-30T08:39:55.754Z,3.63
2022-08-30T08:42:30.053Z,3.78
2022-08-30T08:45:00.991Z,3.92
2022-08-30T08:47:39.378Z,3.60
2022-08-30T08:50:11.499Z,3.45
2022-08-30T08:53:04.142Z,3.25
2022-08-30T08:55:31.627Z,2.63
2022-08-30T08:58:00.552Z,3.20
2022-08-30T09:00:29.975Z,2.65
2022-08-30T09:02:59.376Z,2.42
2022-08-30T09:05:28.811Z,2.30
2022-08-30T09:07:59.614Z,2.35
2022-08-30T09:10:46.975Z,2.88
2022-08-30T09:13:19.126Z,2.47
2022-08-30T09:15:53.720Z,2.50
2022-08-30T09:18:40.900Z,2.45
2022-08-30T09:21:10.402Z,1.90
2022-08-30T09:23:38.378Z,1.98
2022-08-30T09:26:08.193Z,2.30
2022-08-30T09:28:49.272Z,2.58
2022-08-30T09:31:19.647Z,2.05
2022-08-30T09:33:55.035Z,1.88
2022-08-30T09:36:24.793Z,1.90
2022-08-30T09:38:58.103Z,1.75
2022-08-30T09:41:30.333Z,2.35
2022-08-30T09:44:08.500Z,2.10
2022-08-30T09:46:43.594Z,1.85
2022-08-30T09:49:28.317Z,1.88
2022-08-30T09:52:00.154Z,1.65
2022-08-30T09:54:31.858Z,1.52
2022-08-30T09:57:04.859Z,2.13
2022-08-30T09:59:48.015Z,1.83
2022-08-30T10:02:25.249Z,2.10
2022-08-30T10:05:01.253Z,1.90
2022-08-30T10:07:33.564Z,1.63
2022-08-30T10:10:04.463Z,1.52
2022-08-30T10:12:36.733Z,1.92
2022-08-30T10:15:08.037Z,1.45
2022-08-30T10:17:41.686Z,1.25
2022-08-30T10:20:17.668Z,1.83
2022-08-30T10:22:48.270Z,1.50
2022-08-30T10:25:19.920Z,1.52
2022-08-30T10:27:52.135Z,1.80
2022-08-30T10:30:23.014Z,1.60
2022-08-30T10:32:54.654Z,1.55
2022-08-30T10:35:24.122Z,1.58
2022-08-30T10:37:52.549Z,2.17
2022-08-30T10:40:42.003Z,1.80
2022-08-30T10:43:14.569Z,2.13
2022-08-30T10:45:45.915Z,2.08
2022-08-30T10:48:17.421Z,1.70
2022-08-30T10:50:49.282Z,1.80
2022-08-30T10:53:18.720Z,1.77
2022-08-30T10:55:50.318Z,2.03
2022-08-30T10:58:18.551Z,1.85
2022-08-30T11:00:55.129Z,1.80
2022-08-30T11:03:36.275Z,2.00
2022-08-30T11:06:10.002Z,1.80
2022-08-30T11:08:48.823Z,2.33
2022-08-30T11:11:22.440Z,2.13
2022-08-30T11:13:54.598Z,1.73
2022-08-30T11:16:36.580Z,1.45
2022-08-30T11:19:13.221Z,1.33
2022-08-30T11:21:41.756Z,1.70
2022-08-30T11:24:11.864Z,1.33
2022-08-30T11:27:11.194Z,1.85
2022-08-30T11:29:42.961Z,1.40
2022-08-30T11:32:47.725Z,1.25
2022-08-30T11:35:30.118Z,1.50
2022-08-30T11:37:57.786Z,1.30
2022-08-30T11:40:45.879Z,1.30
2022-08-30T11:43:28.254Z,1.50
2022-08-30T11:46:14.677Z,1.67
2022-08-30T11:48:53.777Z,1.42
2022-08-30T11:51:53.892Z,1.40
2022-08-30T11:54:37.967Z,1.63
2022-08-30T11:57:10.856Z,1.48
2022-08-30T11:59:45.393Z,1.23
2022-08-30T12:02:29.757Z,1.27
2022-08-30T12:04:58.786Z,1.30
2022-08-30T12:07:41.433Z,1.20
2022-08-30T12:10:22.106Z,1.20
2022-08-30T12:12:51.018Z,1.30
2022-08-30T12:15:49.089Z,1.27
2022-08-30T12:18:31.539Z,1.20
2022-08-30T12:21:04.935Z,1.30
2022-08-30T12:23:44.418Z,1.35
2022-08-30T12:26:14.451Z,1.20
2022-08-30T12:28:43.086Z,1.42
2022-08-30T12:31:11.869Z,1.38
2022-08-30T12:33:41.928Z,1.40
2022-08-30T12:36:15.231Z,1.38
2022-08-30T12:38:43.020Z,1.45
2022-08-30T12:41:18.775Z,1.30
2022-08-30T12:43:49.269Z,1.10
2022-08-30T12:46:18.639Z,1.27
2022-08-30T12:48:46.552Z,1.52
2022-08-30T12:51:29.335Z,1.10
2022-08-30T12:54:03.711Z,1.20
2022-08-30T12:56:50.307Z,1.08
2022-08-30T12:59:36.580Z,1.20
2022-08-30T13:02:07.701Z,1.10
2022-08-30T13:04:48.700Z,1.40
2022-08-30T13:07:28.056Z,1.10
2022-08-30T13:10:01.341Z,1.20
2022-08-30T13:12:29.537Z,1.27
2022-08-30T13:15:10.224Z,1.05
2022-08-30T13:17:37.727Z,1.30
2022-08-30T13:20:07.309Z,1.10
2022-08-30T13:22:36.965Z,1.20
2022-08-30T13:25:06.045Z,1.33
2022-08-30T13:27:36.950Z,1.02
2022-08-30T13:30:13.221Z,1.00
2022-08-30T13:32:41.421Z,0.98
2022-08-30T13:35:09.445Z,1.20
2022-08-30T13:37:49.787Z,1.25
2022-08-30T13:40:19.290Z,1.10
2022-08-30T13:42:47.019Z,1.10
2022-08-30T13:48:03.067Z,1.30
2022-08-30T13:50:31.714Z,1.40
2022-08-30T13:53:00.677Z,1.20
2022-08-30T13:55:28.512Z,1.20
2022-08-30T13:57:57.547Z,1.42
2022-08-30T14:00:26.155Z,1.50
2022-08-30T14:02:56.118Z,2.15
2022-08-30T14:11:04.990Z,1.30
2022-08-30T14:13:32.632Z,1.52
2022-08-30T14:18:49.485Z,1.30
2022-08-30T14:21:17.049Z,1.30
2022-08-30T14:23:50.229Z,1.35
2022-08-30T14:26:19.280Z,1.25
2022-08-30T14:28:47.105Z,1.27
2022-08-30T14:31:20.102Z,1.52
2022-08-30T14:33:47.975Z,1.08
2022-08-30T14:36:16.021Z,1.30
2022-08-30T14:38:43.797Z,1.20
2022-08-30T14:41:13.660Z,1.23
2022-08-30T14:43:41.500Z,1.33
2022-08-30T14:46:10.049Z,1.38
2022-08-30T14:48:38.228Z,1.50
2022-08-30T14:51:12.549Z,1.35
2022-08-30T14:53:40.188Z,1.63
2022-08-30T14:56:08.358Z,1.23
2022-08-30T14:58:37.878Z,1.27
2022-08-30T15:01:08.336Z,1.67
2022-08-30T15:03:36.729Z,1.38
2022-08-30T15:06:04.838Z,1.67
2022-08-30T15:08:33.242Z,1.50
2022-08-30T15:11:01.264Z,1.20
2022-08-30T15:13:29.671Z,1.52
2022-08-30T15:15:59.021Z,1.27
2022-08-30T15:18:26.580Z,1.45
2022-08-30T15:20:54.103Z,1.27
2022-08-30T15:23:22.829Z,1.20
2022-08-30T15:25:52.467Z,1.55
2022-08-30T15:28:20.098Z,1.63
2022-08-30T15:30:47.716Z,1.50
2022-08-30T15:33:16.948Z,1.50
2022-08-30T15:35:44.463Z,1.67
2022-08-30T15:38:12.462Z,1.40
2022-08-30T15:40:40.256Z,1.25
2022-08-30T15:43:07.871Z,1.50
2022-08-30T15:45:35.836Z,1.25
2022-08-30T15:48:03.493Z,1.50
2022-08-30T15:50:32.439Z,1.55
2022-08-30T15:52:59.924Z,1.42
2022-08-30T15:55:28.317Z,1.58
2022-08-30T15:57:55.924Z,1.60
2022-08-30T16:00:23.438Z,1.25
2022-08-30T16:02:52.007Z,1.30
2022-08-30T16:05:21.289Z,1.67
2022-08-30T16:07:50.367Z,1.50
2022-08-30T16:10:18.079Z,1.45
2022-08-30T16:12:46.181Z,1.50
2022-08-30T16:15:13.968Z,1.65
2022-08-30T16:17:41.824Z,1.50
2022-08-30T16:20:10.223Z,1.58
2022-08-30T16:22:39.567Z,1.20
2022-08-30T16:25:15.302Z,1.52
2022-08-30T16:27:42.990Z,2.00
2022-08-30T16:30:11.762Z,1.33
2022-08-30T16:32:39.791Z,1.25
2022-08-30T16:35:08.731Z,1.52
2022-08-30T16:37:36.939Z,1.40
2022-08-30T16:40:04.776Z,1.40
2022-08-30T16:42:34.763Z,1.48
2022-08-30T16:45:02.552Z,1.27
2022-08-30T16:47:38.448Z,1.50
2022-08-30T16:50:06.474Z,1.63
2022-08-30T16:52:36.426Z,1.23
2022-08-30T16:55:04.391Z,1.52
2022-08-30T16:57:32.039Z,1.63
2022-08-30T17:00:00.967Z,1.90
2022-08-30T17:02:31.631Z,1.67
2022-08-30T17:04:59.243Z,1.30
2022-08-30T17:07:26.856Z,1.50
2022-08-30T17:09:57.348Z,1.40
2022-08-30T17:12:25.337Z,1.73
2022-08-30T17:14:53.793Z,1.45
2022-08-30T17:17:23.074Z,1.73
2022-08-30T17:19:50.926Z,1.55
2022-08-30T17:22:21.602Z,1.70
2022-08-30T17:24:49.447Z,1.77
2022-08-30T17:27:17.427Z,1.45
2022-08-30T17:29:44.942Z,1.63
2022-08-30T17:32:12.575Z,1.50
2022-08-30T17:34:42.275Z,1.67
2022-08-30T17:37:12.505Z,1.65
2022-08-30T17:39:40.549Z,1.60
2022-08-30T17:42:08.199Z,1.45
2022-08-30T17:44:37.956Z,1.70
2022-08-30T17:47:09.663Z,1.75
2022-08-30T17:49:37.477Z,1.55
2022-08-30T17:52:06.609Z,1.70
2022-08-30T17:54:35.727Z,1.85
2022-08-30T17:57:10.752Z,1.75
2022-08-30T17:59:38.869Z,1.60
2022-08-30T18:02:07.102Z,1.90
2022-08-30T18:04:38.838Z,1.77
2022-08-30T18:07:11.844Z,1.85
2022-08-30T18:09:40.507Z,2.10
2022-08-30T18:12:08.207Z,1.83
2022-08-30T18:14:35.808Z,1.75
2022-08-30T18:17:07.109Z,1.80
2022-08-30T18:19:34.827Z,2.20
2022-08-30T18:22:02.729Z,2.00
2022-08-30T18:24:32.437Z,1.98
2022-08-30T18:27:00.094Z,1.90
2022-08-30T18:29:30.157Z,1.77
2022-08-30T18:31:59.575Z,2.28
2022-08-30T18:34:27.360Z,1.73
2022-08-30T18:36:55.176Z,2.03
2022-08-30T18:39:23.050Z,1.90
2022-08-30T18:41:52.837Z,2.00
2022-08-30T18:44:28.258Z,1.85
2022-08-30T18:46:57.556Z,1.90
2022-08-30T18:49:25.307Z,2.05
2022-08-30T18:51:53.131Z,1.95
2022-08-30T18:54:20.877Z,2.00
2022-08-30T18:56:48.534Z,2.40
2022-08-30T18:59:18.803Z,2.15
2022-08-30T19:01:47.152Z,1.70
2022-08-30T19:04:22.545Z,2.30
2022-08-30T19:07:08.650Z,1.63
2022-08-30T19:09:40.336Z,1.67
2022-08-30T19:12:09.533Z,1.60
2022-08-30T19:14:38.868Z,1.65
2022-08-30T19:17:07.861Z,1.90
2022-08-30T19:19:37.237Z,1.80
2022-08-30T19:22:16.705Z,1.83
2022-08-30T19:24:44.455Z,1.38
2022-08-30T19:27:12.675Z,1.90
2022-08-30T19:29:41.927Z,1.90
2022-08-30T19:32:13.186Z,1.73
2022-08-30T19:34:40.887Z,1.75
2022-08-30T19:37:08.689Z,2.05
2022-08-30T19:39:46.718Z,1.70
2022-08-30T19:42:14.770Z,1.80
2022-08-30T19:44:46.928Z,1.40
2022-08-30T19:47:14.901Z,2.10
2022-08-30T19:49:43.617Z,1.83
2022-08-30T19:52:12.503Z,1.80
2022-08-30T19:54:41.182Z,1.85
2022-08-30T19:57:10.348Z,2.38
2022-08-30T19:59:38.347Z,1.40
2022-08-30T20:02:07.593Z,1.98
2022-08-30T20:04:41.021Z,1.52
2022-08-30T20:07:10.742Z,1.90
2022-08-30T20:09:38.535Z,1.95
2022-08-30T20:12:06.973Z,1.90
2022-08-30T20:14:34.916Z,1.80
2022-08-30T20:17:02.651Z,1.65
2022-08-30T20:19:34.377Z,1.90
2022-08-30T20:22:07.616Z,1.65
2022-08-30T20:27:04.646Z,1.60
2022-08-30T20:29:32.380Z,1.95
2022-08-30T20:32:00.117Z,1.85
2022-08-30T20:34:28.427Z,1.52
2022-08-30T20:36:58.558Z,1.60
2022-08-30T20:39:26.878Z,1.73
2022-08-30T20:41:57.234Z,1.67
2022-08-30T20:44:24.914Z,1.83
2022-08-30T20:46:52.574Z,1.65
2022-08-30T20:49:20.342Z,2.03
2022-08-30T20:51:52.806Z,1.85
2022-08-30T20:54:24.095Z,1.42
2022-08-30T20:56:52.457Z,2.30
2022-08-30T20:59:20.939Z,1.90
2022-08-30T21:01:49.061Z,1.73
2022-08-30T21:04:19.117Z,1.60
2022-08-30T21:06:47.827Z,1.88
2022-08-30T21:09:16.202Z,2.30
2022-08-30T21:11:45.312Z,1.75
2022-08-30T21:14:13.009Z,1.90
2022-08-30T21:16:40.554Z,1.55
2022-08-30T21:19:09.076Z,1.55
2022-08-30T21:21:36.680Z,2.20
2022-08-30T21:24:06.958Z,1.95
2022-08-30T21:26:34.493Z,1.60
2022-08-30T21:29:03.425Z,2.30
2022-08-30T21:31:31.447Z,2.13
2022-08-30T21:33:58.996Z,1.70
2022-08-30T21:36:45.083Z,1.85
2022-08-30T21:39:13.541Z,2.25
2022-08-30T21:41:41.101Z,1.90
2022-08-30T21:44:11.462Z,1.95
2022-08-30T21:46:39.638Z,2.30
2022-08-30T21:49:08.219Z,2.15
2022-08-30T21:51:37.217Z,2.33
2022-08-30T21:54:07.230Z,2.28
2022-08-30T21:56:35.468Z,2.13
2022-08-30T21:59:03.361Z,2.50
2022-08-30T22:01:32.984Z,2.03
2022-08-30T22:04:02.516Z,2.35
2022-08-30T22:06:32.186Z,2.63
2022-08-30T22:09:02.392Z,2.28
2022-08-30T22:11:31.039Z,2.63
2022-08-30T22:13:58.648Z,2.53
2022-08-30T22:16:28.823Z,2.70
2022-08-30T22:18:58.832Z,2.88
2022-08-30T22:21:27.760Z,2.72
2022-08-30T22:23:57.621Z,2.55
2022-08-30T22:26:27.900Z,3.03
2022-08-30T22:28:55.839Z,2.63
2022-08-30T22:31:27.062Z,2.53
2022-08-30T22:34:02.223Z,3.03
2022-08-30T22:36:35.954Z,2.75
2022-08-30T22:39:03.629Z,2.55
2022-08-30T22:41:31.695Z,2.53
2022-08-30T22:44:00.854Z,2.75
2022-08-30T22:46:34.474Z,2.75
2022-08-30T22:49:02.846Z,2.85
2022-08-30T22:51:32.020Z,3.75
2022-08-30T22:54:00.815Z,3.40
2022-08-30T22:56:30.962Z,3.17
2022-08-30T22:58:58.985Z,2.78
2022-08-30T23:01:29.276Z,3.17
2022-08-30T23:03:57.992Z,2.88
2022-08-30T23:06:25.719Z,3.13
2022-08-30T23:08:55.063Z,3.03
2022-08-30T23:11:22.754Z,3.30
2022-08-30T23:13:50.319Z,2.75
2022-08-30T23:16:18.113Z,3.45
2022-08-30T23:18:47.391Z,3.08
2022-08-30T23:21:17.634Z,3.10
2022-08-30T23:24:03.219Z,3.20
2022-08-30T23:26:52.976Z,3.60
2022-08-30T23:29:38.343Z,3.40
2022-08-30T23:32:23.496Z,3.40
2022-08-30T23:35:08.280Z,3.55
2022-08-30T23:37:55.276Z,3.60
2022-08-30T23:40:40.948Z,3.10
2022-08-30T23:43:29.016Z,3.42
2022-08-30T23:46:19.202Z,3.15
2022-08-30T23:49:05.290Z,3.60
2022-08-30T23:51:50.249Z,4.03
2022-08-30T23:54:35.329Z,3.55
2022-08-30T23:57:20.329Z,3.30
